sensor_id;sensor_type;location;lat;lon;timestamp;pressure;altitude;pressure_sealevel;temperature;humidity
50087;BME280;35967;50.718;7.050;2024-01-16T00:09:48;100110.34;;;0.66;100.00
50087;BME280;35967;50.718;7.050;2024-01-16T00:19:55;100111.19;;;0.63;100.00
50087;BME280;35967;50.718;7.050;2024-01-16T00:30:02;100114.53;;;0.62;100.00
50087;BME280;35967;50.718;7.050;2024-01-16T00:40:08;100118.84;;;0.70;100.00
50087;BME280;35967;50.718;7.050;2024-01-16T00:50:11;100126.34;;;0.59;100.00
50087;BME280;35967;50.718;7.050;2024-01-16T01:00:16;100135.69;;;0.65;100.00
50087;BME280;35967;50.718;7.050;2024-01-16T01:10:19;100144.19;;;0.71;100.00
50087;BME280;35967;50.718;7.050;2024-01-16T01:20:24;100153.47;;;0.69;100.00
50087;BME280;35967;50.718;7.050;2024-01-16T01:30:28;100163.56;;;0.66;100.00
50087;BME280;35967;50.718;7.050;2024-01-16T01:40:32;100166.13;;;0.71;100.00
50087;BME280;35967;50.718;7.050;2024-01-16T01:50:35;100172.03;;;0.70;100.00
50087;BME280;35967;50.718;7.050;2024-01-16T02:00:40;100182.97;;;0.66;100.00
50087;BME280;35967;50.718;7.050;2024-01-16T02:10:45;100205.50;;;0.42;100.00
50087;BME280;35967;50.718;7.050;2024-01-16T02:20:52;100206.06;;;0.18;100.00
50087;BME280;35967;50.718;7.050;2024-01-16T02:31:01;100190.13;;;0.28;100.00
50087;BME280;35967;50.718;7.050;2024-01-16T02:41:04;100185.88;;;0.23;100.00
50087;BME280;35967;50.718;7.050;2024-01-16T02:51:09;100188.41;;;0.24;100.00
50087;BME280;35967;50.718;7.050;2024-01-16T03:01:13;100194.47;;;0.36;100.00
50087;BME280;35967;50.718;7.050;2024-01-16T03:11:18;100198.72;;;0.38;100.00
50087;BME280;35967;50.718;7.050;2024-01-16T03:21:21;100188.59;;;0.41;100.00
50087;BME280;35967;50.718;7.050;2024-01-16T03:31:26;100188.53;;;0.37;100.00
50087;BME280;35967;50.718;7.050;2024-01-16T03:41:29;100177.63;;;0.39;100.00
50087;BME280;35967;50.718;7.050;2024-01-16T03:51:33;100187.63;;;0.30;100.00
50087;BME280;35967;50.718;7.050;2024-01-16T04:01:37;100190.94;;;0.23;100.00
50087;BME280;35967;50.718;7.050;2024-01-16T04:11:41;100184.16;;;0.23;100.00
50087;BME280;35967;50.718;7.050;2024-01-16T04:21:44;100184.88;;;0.11;100.00
50087;BME280;35967;50.718;7.050;2024-01-16T04:31:49;100183.22;;;0.15;100.00
50087;BME280;35967;50.718;7.050;2024-01-16T04:41:52;100183.22;;;0.15;100.00
50087;BME280;35967;50.718;7.050;2024-01-16T04:51:57;100183.16;;;0.07;100.00
50087;BME280;35967;50.718;7.050;2024-01-16T05:02:00;100171.38;;;0.11;100.00
50087;BME280;35967;50.718;7.050;2024-01-16T05:12:05;100173.09;;;0.13;100.00
50087;BME280;35967;50.718;7.050;2024-01-16T05:22:09;100166.38;;;0.17;100.00
50087;BME280;35967;50.718;7.050;2024-01-16T05:32:14;100159.63;;;0.18;100.00
50087;BME280;35967;50.718;7.050;2024-01-16T05:42:18;100158.84;;;0.22;100.00
50087;BME280;35967;50.718;7.050;2024-01-16T05:52:23;100151.34;;;0.29;100.00
50087;BME280;35967;50.718;7.050;2024-01-16T06:02:26;100143.84;;;0.36;100.00
50087;BME280;35967;50.718;7.050;2024-01-16T06:12:31;100141.25;;;0.33;100.00
50087;BME280;35967;50.718;7.050;2024-01-16T06:22:34;100144.63;;;0.31;100.00
50087;BME280;35967;50.718;7.050;2024-01-16T06:32:39;100144.56;;;0.28;100.00
50087;BME280;35967;50.718;7.050;2024-01-16T06:42:42;100151.34;;;0.29;99.88
50087;BME280;35967;50.718;7.050;2024-01-16T06:52:46;100163.97;;;0.28;96.81
50087;BME280;35967;50.718;7.050;2024-01-16T07:02:49;100162.22;;;0.22;96.52
50087;BME280;35967;50.718;7.050;2024-01-16T07:12:55;100175.63;;;0.17;94.08
50087;BME280;35967;50.718;7.050;2024-01-16T07:22:58;100181.56;;;0.17;94.92
50087;BME280;35967;50.718;7.050;2024-01-16T07:33:04;100187.13;;;-0.09;92.79
50087;BME280;35967;50.718;7.050;2024-01-16T07:43:07;100206.34;;;-0.23;92.00
50087;BME280;35967;50.718;7.050;2024-01-16T07:53:12;100210.25;;;-0.42;92.15
50087;BME280;35967;50.718;7.050;2024-01-16T08:03:16;100211.09;;;-0.42;91.41
50087;BME280;35967;50.718;7.050;2024-01-16T08:13:21;100229.81;;;-0.30;90.66
50087;BME280;35967;50.718;7.050;2024-01-16T08:23:24;100238.38;;;-0.22;90.84
50087;BME280;35967;50.718;7.050;2024-01-16T08:33:29;100235.88;;;-0.19;89.75
50087;BME280;35967;50.718;7.050;2024-01-16T08:43:43;100240.16;;;-0.17;88.36
50087;BME280;35967;50.718;7.050;2024-01-16T08:53:48;100253.78;;;-0.07;88.02
50087;BME280;35967;50.718;7.050;2024-01-16T09:03:52;100244.78;;;0.14;86.48
50087;BME280;35967;50.718;7.050;2024-01-16T09:13:56;100243.88;;;0.75;90.08
50087;BME280;35967;50.718;7.050;2024-01-16T09:24:03;100249.28;;;0.34;85.78
50087;BME280;35967;50.718;7.050;2024-01-16T09:34:07;100257.13;;;0.54;83.38
50087;BME280;35967;50.718;7.050;2024-01-16T09:44:11;100258.97;;;0.67;82.61
50087;BME280;35967;50.718;7.050;2024-01-16T09:54:15;100244.72;;;0.74;81.91
50087;BME280;35967;50.718;7.050;2024-01-16T10:04:20;100240.69;;;0.91;79.79
50087;BME280;35967;50.718;7.050;2024-01-16T10:14:25;100227.88;;;1.75;87.87
50087;BME280;35967;50.718;7.050;2024-01-16T10:24:30;100236.75;;;1.24;79.05
50087;BME280;35967;50.718;7.050;2024-01-16T10:34:36;100221.41;;;1.09;77.71
50087;BME280;35967;50.718;7.050;2024-01-16T10:44:52;100197.88;;;1.24;79.00
50087;BME280;35967;50.718;7.050;2024-01-16T10:54:59;100181.28;;;1.62;77.41
50087;BME280;35967;50.718;7.050;2024-01-16T11:05:06;100171.72;;;1.26;77.52
50087;BME280;35967;50.718;7.050;2024-01-16T11:15:11;100165.22;;;1.63;77.09
50087;BME280;35967;50.718;7.050;2024-01-16T11:25:17;100159.97;;;1.41;76.55
50087;BME280;35967;50.718;7.050;2024-01-16T11:35:31;100148.50;;;2.03;75.56
50087;BME280;35967;50.718;7.050;2024-01-16T11:45:48;100163.84;;;2.30;74.56
50087;BME280;35967;50.718;7.050;2024-01-16T11:56:02;100166.44;;;2.45;71.65
50087;BME280;35967;50.718;7.050;2024-01-16T12:06:16;100151.09;;;2.11;71.32
50087;BME280;35967;50.718;7.050;2024-01-16T12:16:21;100132.59;;;2.43;68.70
50087;BME280;35967;50.718;7.050;2024-01-16T12:26:24;100119.63;;;1.78;68.37
50087;BME280;35967;50.718;7.050;2024-01-16T12:36:29;100113.91;;;2.19;71.35
50087;BME280;35967;50.718;7.050;2024-01-16T12:46:33;100098.69;;;2.35;69.38
50087;BME280;35967;50.718;7.050;2024-01-16T12:56:37;100085.97;;;2.24;68.20
50087;BME280;35967;50.718;7.050;2024-01-16T13:06:40;100069.06;;;2.42;68.36
50087;BME280;35967;50.718;7.050;2024-01-16T13:16:47;100059.78;;;2.47;67.97
50087;BME280;35967;50.718;7.050;2024-01-16T13:26:50;100046.97;;;2.10;65.87
50087;BME280;35967;50.718;7.050;2024-01-16T13:36:58;100063.97;;;2.42;65.92
50087;BME280;35967;50.718;7.050;2024-01-16T13:47:17;100047.75;;;1.82;66.33
50087;BME280;35967;50.718;7.050;2024-01-16T13:57:25;100060.47;;;1.84;65.07
50087;BME280;35967;50.718;7.050;2024-01-16T14:07:28;100049.44;;;1.83;65.59
50087;BME280;35967;50.718;7.050;2024-01-16T14:17:33;100051.00;;;1.56;66.49
50087;BME280;35967;50.718;7.050;2024-01-16T14:27:38;100028.88;;;1.29;64.89
50087;BME280;35967;50.718;7.050;2024-01-16T14:37:43;100039.03;;;1.26;65.93
50087;BME280;35967;50.718;7.050;2024-01-16T14:47:47;100034.84;;;1.37;66.21
50087;BME280;35967;50.718;7.050;2024-01-16T14:57:53;100012.72;;;1.08;65.75
50087;BME280;35967;50.718;7.050;2024-01-16T15:08:02;100005.19;;;1.19;65.50
50087;BME280;35967;50.718;7.050;2024-01-16T15:18:07;99987.41;;;1.15;65.35
50087;BME280;35967;50.718;7.050;2024-01-16T15:28:11;99988.16;;;0.95;66.97
50087;BME280;35967;50.718;7.050;2024-01-16T15:38:16;99991.50;;;0.89;68.17
50087;BME280;35967;50.718;7.050;2024-01-16T15:48:20;99992.25;;;0.77;66.42
50087;BME280;35967;50.718;7.050;2024-01-16T15:58:24;99990.53;;;0.73;67.06
50087;BME280;35967;50.718;7.050;2024-01-16T16:08:27;99987.91;;;0.62;67.63
50087;BME280;35967;50.718;7.050;2024-01-16T16:18:32;100003.19;;;0.73;71.35
50087;BME280;35967;50.718;7.050;2024-01-16T16:28:38;100031.72;;;0.52;71.16
50087;BME280;35967;50.718;7.050;2024-01-16T16:38:43;100039.88;;;0.22;73.43
50087;BME280;35967;50.718;7.050;2024-01-16T16:48:47;100038.75;;;-0.07;75.77
50087;BME280;35967;50.718;7.050;2024-01-16T16:58:52;100034.56;;;-0.03;73.28
50087;BME280;35967;50.718;7.050;2024-01-16T17:08:55;100017.53;;;-0.18;71.42
50087;BME280;35967;50.718;7.050;2024-01-16T17:19:00;100014.94;;;-0.24;70.63
50087;BME280;35967;50.718;7.050;2024-01-16T17:29:06;100009.75;;;-0.35;71.42
50087;BME280;35967;50.718;7.050;2024-01-16T17:39:11;99993.59;;;-0.48;73.17
50087;BME280;35967;50.718;7.050;2024-01-16T17:49:17;99971.69;;;-0.46;73.58
50087;BME280;35967;50.718;7.050;2024-01-16T17:59:22;99963.06;;;-0.64;74.25
50087;BME280;35967;50.718;7.050;2024-01-16T18:09:29;99948.66;;;-0.71;74.76
50087;BME280;35967;50.718;7.050;2024-01-16T18:19:34;99945.06;;;-0.88;74.89
50087;BME280;35967;50.718;7.050;2024-01-16T18:29:38;99935.16;;;-0.71;75.77
50087;BME280;35967;50.718;7.050;2024-01-16T18:39:44;99923.22;;;-0.83;75.18
50087;BME280;35967;50.718;7.050;2024-01-16T18:49:48;99911.44;;;-0.84;75.79
50087;BME280;35967;50.718;7.050;2024-01-16T18:59:53;99907.28;;;-0.81;74.46
50087;BME280;35967;50.718;7.050;2024-01-16T19:09:58;99896.91;;;-1.01;74.36
50087;BME280;35967;50.718;7.050;2024-01-16T19:20:05;99901.09;;;-1.04;74.50
50087;BME280;35967;50.718;7.050;2024-01-16T19:30:11;99892.69;;;-1.00;74.03
50087;BME280;35967;50.718;7.050;2024-01-16T19:40:17;99882.66;;;-0.97;74.12
50087;BME280;35967;50.718;7.050;2024-01-16T19:50:20;99867.19;;;-1.19;75.22
50087;BME280;35967;50.718;7.050;2024-01-16T20:00:26;99840.09;;;-1.32;77.00
50087;BME280;35967;50.718;7.050;2024-01-16T20:10:30;99826.38;;;-0.84;79.60
50087;BME280;35967;50.718;7.050;2024-01-16T20:20:35;99813.16;;;-1.33;76.59
50087;BME280;35967;50.718;7.050;2024-01-16T20:30:38;99815.63;;;-1.39;75.63
50087;BME280;35967;50.718;7.050;2024-01-16T20:40:43;99805.19;;;-1.64;75.30
50087;BME280;35967;50.718;7.050;2024-01-16T20:50:47;99815.97;;;-1.76;77.59
50087;BME280;35967;50.718;7.050;2024-01-16T21:00:51;99807.50;;;-1.78;79.04
50087;BME280;35967;50.718;7.050;2024-01-16T21:10:55;99790.88;;;-1.65;77.57
50087;BME280;35967;50.718;7.050;2024-01-16T21:20:59;99772.94;;;-1.84;77.09
50087;BME280;35967;50.718;7.050;2024-01-16T21:31:03;99757.66;;;-1.96;78.16
50087;BME280;35967;50.718;7.050;2024-01-16T21:41:08;99743.41;;;-1.94;80.07
50087;BME280;35967;50.718;7.050;2024-01-16T21:51:11;99743.41;;;-1.94;79.64
50087;BME280;35967;50.718;7.050;2024-01-16T22:01:15;99722.34;;;-1.98;78.85
50087;BME280;35967;50.718;7.050;2024-01-16T22:11:22;99695.50;;;-1.93;77.95
50087;BME280;35967;50.718;7.050;2024-01-16T22:21:27;99676.63;;;-2.23;78.94
50087;BME280;35967;50.718;7.050;2024-01-16T22:31:31;99670.41;;;-2.46;81.20
50087;BME280;35967;50.718;7.050;2024-01-16T22:41:42;99662.50;;;-2.68;83.09
50087;BME280;35967;50.718;7.050;2024-01-16T22:51:45;99651.00;;;-2.50;81.57
50087;BME280;35967;50.718;7.050;2024-01-16T23:01:50;99634.19;;;-2.51;81.52
50087;BME280;35967;50.718;7.050;2024-01-16T23:11:54;99609.44;;;-2.79;84.61
50087;BME280;35967;50.718;7.050;2024-01-16T23:21:58;99595.72;;;-2.98;86.06
50087;BME280;35967;50.718;7.050;2024-01-16T23:32:01;99585.56;;;-3.03;87.12
50087;BME280;35967;50.718;7.050;2024-01-16T23:42:06;99562.81;;;-3.09;87.61
50087;BME280;35967;50.718;7.050;2024-01-16T23:52:15;99534.97;;;-3.21;87.87
